LGKZ/KZI METAR and TAF weather

Enter ICAO airport designator
Station Type Date Time Source
LGKZ METAR 2020/04/05 14:50 UTC NOAA

LGKZ 051450Z AUTO 35008KT 290V020 //// -RA ////// 08/04 Q1017 RE//


Station Type Date Time Source
LGKZ Decoded METAR 2020/04/05 14:50 UTC NOAA

Kozani Airport , Greece (LGKZ) 40-18N 021-47E 627M
Apr 05, 2020 - 10:50 AM EDT / 2020.04.05 1450 UTC
Wind: from the N (350 degrees) at 9 MPH (8 KT) (direction variable):0
Weather: light rain
Temperature: 46 F (8 C)
Dew Point: 39 F (4 C)
Relative Humidity: 75%
Pressure (altimeter): 30.03 in. Hg (1017 hPa)
ob: LGKZ 051450Z AUTO 35008KT 290V020 //// -RA ////// 08/04 Q1017 RE//
cycle: 15

Station Type Date Time Source
LGKZ TAF UTC NOAA

Error!

Example: see airport list